createdAt,value
2024-02-12T00:01:48.464Z,0.70
2024-02-12T00:04:22.415Z,0.80
2024-02-12T00:06:51.693Z,0.80
2024-02-12T00:09:20.921Z,0.60
2024-02-12T00:11:52.108Z,0.70
2024-02-12T00:14:20.695Z,0.70
2024-02-12T00:16:50.058Z,0.60
2024-02-12T00:19:21.052Z,0.70
2024-02-12T00:21:52.551Z,0.73
2024-02-12T00:24:22.443Z,0.80
2024-02-12T00:26:52.492Z,0.70
2024-02-12T00:29:20.540Z,0.80
2024-02-12T00:31:52.035Z,0.90
2024-02-12T00:34:24.707Z,0.70
2024-02-12T00:36:54.122Z,0.67
2024-02-12T00:39:20.878Z,0.70
2024-02-12T00:41:54.282Z,0.80
2024-02-12T00:44:23.865Z,0.80
2024-02-12T00:46:55.588Z,0.83
2024-02-12T00:52:08.610Z,0.70
2024-02-12T00:54:54.356Z,0.60
2024-02-12T00:57:29.376Z,0.93
2024-02-12T00:59:58.784Z,1.07
2024-02-12T01:02:27.219Z,0.93
2024-02-12T01:04:57.583Z,0.80
2024-02-12T01:07:28.656Z,0.73
2024-02-12T01:09:55.462Z,0.77
2024-02-12T01:12:22.876Z,0.77
2024-02-12T01:14:49.491Z,1.00
2024-02-12T01:17:16.690Z,0.80
2024-02-12T01:19:45.566Z,0.83
2024-02-12T01:22:12.217Z,0.80
2024-02-12T01:24:44.724Z,0.63
2024-02-12T01:27:15.849Z,0.73
2024-02-12T01:29:45.318Z,0.80
2024-02-12T01:32:11.882Z,0.83
2024-02-12T01:34:38.955Z,0.80
2024-02-12T01:37:05.630Z,1.00
2024-02-12T01:39:36.181Z,1.00
2024-02-12T01:42:15.304Z,0.90
2024-02-12T01:45:00.950Z,0.80
2024-02-12T01:47:28.366Z,0.70
2024-02-12T01:50:00.319Z,0.87
2024-02-12T01:52:30.379Z,0.90
2024-02-12T01:54:58.794Z,0.87
2024-02-12T01:57:33.093Z,1.00
2024-02-12T02:00:00.697Z,1.07
2024-02-12T02:02:30.615Z,1.10
2024-02-12T02:05:02.140Z,1.10
2024-02-12T02:07:32.475Z,1.00
2024-02-12T02:09:59.304Z,0.90
2024-02-12T02:12:28.520Z,1.00
2024-02-12T02:14:58.376Z,0.90
2024-02-12T02:17:30.442Z,1.00
2024-02-12T02:20:08.633Z,0.90
2024-02-12T02:22:35.831Z,0.80
2024-02-12T02:25:08.289Z,0.90
2024-02-12T02:27:52.622Z,1.00
2024-02-12T02:30:20.974Z,1.00
2024-02-12T02:32:49.111Z,0.93
2024-02-12T02:35:15.926Z,0.90
2024-02-12T02:37:44.033Z,0.80
2024-02-12T02:40:11.033Z,0.80
2024-02-12T02:42:41.542Z,1.00
2024-02-12T02:45:09.934Z,1.10
2024-02-12T02:47:41.008Z,0.87
2024-02-12T02:50:12.196Z,0.70
2024-02-12T02:52:40.935Z,1.10
2024-02-12T02:55:08.525Z,0.93
2024-02-12T02:57:36.001Z,0.93
2024-02-12T03:00:04.581Z,0.97
2024-02-12T03:02:31.833Z,0.80
2024-02-12T03:04:59.958Z,1.07
2024-02-12T03:07:28.910Z,0.87
2024-02-12T03:09:58.373Z,1.27
2024-02-12T03:12:34.003Z,1.00
2024-02-12T03:15:01.753Z,0.90
2024-02-12T03:17:29.878Z,0.80
2024-02-12T03:19:57.494Z,0.90
2024-02-12T03:22:24.249Z,1.00
2024-02-12T03:24:57.739Z,0.90
2024-02-12T03:27:24.863Z,0.83
2024-02-12T03:29:56.657Z,1.00
2024-02-12T03:35:12.358Z,0.90
2024-02-12T03:37:38.983Z,1.07
2024-02-12T03:40:11.659Z,0.90
2024-02-12T03:42:43.785Z,1.10
2024-02-12T03:45:22.673Z,0.97
2024-02-12T03:47:52.782Z,0.90
2024-02-12T03:50:40.304Z,0.80
2024-02-12T03:53:26.154Z,0.93
2024-02-12T03:56:17.407Z,1.00
2024-02-12T03:59:05.671Z,0.93
2024-02-12T04:01:37.057Z,1.10
2024-02-12T04:04:11.401Z,0.80
2024-02-12T04:06:39.271Z,0.87
2024-02-12T04:09:10.964Z,1.00
2024-02-12T04:11:41.207Z,0.80
2024-02-12T04:14:14.457Z,0.90
2024-02-12T04:16:41.078Z,0.97
2024-02-12T04:19:14.127Z,1.00
2024-02-12T04:21:44.197Z,1.13
2024-02-12T04:24:17.853Z,1.10
2024-02-12T04:29:46.795Z,1.10
2024-02-12T04:32:14.910Z,1.00
2024-02-12T04:34:42.819Z,1.00
2024-02-12T04:37:11.517Z,1.00
2024-02-12T04:39:38.688Z,1.10
2024-02-12T04:42:08.410Z,1.13
2024-02-12T04:44:37.357Z,1.10
2024-02-12T04:49:40.610Z,0.87
2024-02-12T04:52:12.669Z,1.00
2024-02-12T04:54:40.718Z,0.90
2024-02-12T04:57:11.493Z,0.80
2024-02-12T04:59:41.573Z,1.00
2024-02-12T05:02:11.325Z,1.00
2024-02-12T05:04:46.164Z,1.00
2024-02-12T05:07:14.058Z,1.00
2024-02-12T05:09:42.727Z,0.80
2024-02-12T05:12:17.057Z,0.80
2024-02-12T05:14:43.844Z,0.70
2024-02-12T05:17:12.860Z,0.70
2024-02-12T05:20:05.403Z,0.90
2024-02-12T05:22:58.600Z,0.70
2024-02-12T05:25:29.596Z,0.83
2024-02-12T05:27:59.055Z,0.70
2024-02-12T05:30:29.538Z,0.67
2024-02-12T05:32:56.478Z,0.70
2024-02-12T05:35:25.904Z,0.77
2024-02-12T05:37:52.590Z,0.83
2024-02-12T05:40:23.198Z,1.00
2024-02-12T05:42:53.902Z,0.90
2024-02-12T05:45:21.057Z,1.00
2024-02-12T05:47:50.540Z,0.80
2024-02-12T05:50:18.681Z,0.70
2024-02-12T05:52:45.576Z,0.90
2024-02-12T05:55:14.898Z,0.80
2024-02-12T05:57:51.841Z,0.83
2024-02-12T06:00:22.530Z,0.77
2024-02-12T06:02:49.675Z,0.63
2024-02-12T06:05:19.065Z,0.90
2024-02-12T06:07:48.365Z,0.67
2024-02-12T06:10:19.823Z,0.60
2024-02-12T06:12:50.870Z,0.80
2024-02-12T06:15:22.790Z,0.60
2024-02-12T06:17:50.126Z,0.60
2024-02-12T06:20:18.285Z,0.77
2024-02-12T06:22:57.830Z,0.70
2024-02-12T06:25:40.377Z,0.70
2024-02-12T06:28:24.373Z,0.80
2024-02-12T06:30:52.218Z,0.60
2024-02-12T06:33:20.494Z,0.70
2024-02-12T06:36:10.439Z,0.67
2024-02-12T06:38:35.338Z,0.80
2024-02-12T06:41:02.827Z,0.70
2024-02-12T06:43:41.991Z,0.73
2024-02-12T06:46:09.816Z,0.90
2024-02-12T06:48:41.188Z,0.60
2024-02-12T06:51:19.864Z,0.60
2024-02-12T06:53:50.678Z,0.80
2024-02-12T06:56:26.365Z,0.70
2024-02-12T06:58:56.493Z,0.60
2024-02-12T07:01:25.932Z,0.60
2024-02-12T07:03:54.169Z,1.27
2024-02-12T07:06:24.108Z,0.70
2024-02-12T07:08:50.917Z,0.70
2024-02-12T07:11:23.411Z,0.80
2024-02-12T07:13:51.120Z,0.60
2024-02-12T07:16:22.941Z,0.70
2024-02-12T07:18:50.132Z,0.80
2024-02-12T07:21:20.476Z,0.80
2024-02-12T07:23:49.459Z,0.70
2024-02-12T07:26:18.088Z,0.50
2024-02-12T07:28:50.129Z,0.80
2024-02-12T07:31:22.050Z,0.80
2024-02-12T07:33:51.192Z,0.67
2024-02-12T07:36:23.503Z,0.60
2024-02-12T07:38:55.689Z,0.60
2024-02-12T07:41:31.026Z,0.60
2024-02-12T07:44:03.926Z,0.70
2024-02-12T07:46:33.965Z,0.60
2024-02-12T07:49:08.230Z,0.90
2024-02-12T07:51:39.783Z,0.67
2024-02-12T07:54:07.479Z,0.50
2024-02-12T07:56:39.487Z,0.60
2024-02-12T07:59:08.155Z,0.63
2024-02-12T08:01:36.304Z,0.63
2024-02-12T08:04:04.555Z,0.60
2024-02-12T08:06:38.738Z,0.50
2024-02-12T08:09:16.755Z,0.57
2024-02-12T08:11:51.451Z,0.43
2024-02-12T08:14:28.729Z,0.40
2024-02-12T08:17:00.026Z,0.40
2024-02-12T08:19:29.832Z,0.40
2024-02-12T08:22:01.371Z,0.40
2024-02-12T08:24:31.216Z,0.40
2024-02-12T08:27:01.926Z,0.33
2024-02-12T08:29:33.210Z,0.30
2024-02-12T08:32:03.414Z,0.30
2024-02-12T08:34:33.372Z,0.30
2024-02-12T08:37:05.670Z,0.37
2024-02-12T08:39:36.594Z,0.20
2024-02-12T08:42:05.039Z,0.30
2024-02-12T08:44:33.444Z,0.20
2024-02-12T08:47:05.015Z,0.30
2024-02-12T08:49:44.283Z,0.20
2024-02-12T08:52:12.112Z,0.30
2024-02-12T08:54:39.340Z,0.30
2024-02-12T08:57:13.456Z,0.30
2024-02-12T08:59:43.676Z,0.30
2024-02-12T09:02:16.736Z,0.40
2024-02-12T09:04:43.990Z,0.30
2024-02-12T09:07:13.561Z,0.30
2024-02-12T09:09:44.007Z,0.30
2024-02-12T09:12:18.365Z,0.23
2024-02-12T09:14:50.634Z,0.30
2024-02-12T09:17:23.327Z,0.50
2024-02-12T09:19:58.112Z,0.20
2024-02-12T09:22:27.686Z,0.50
2024-02-12T09:24:57.124Z,0.23
2024-02-12T09:27:28.464Z,0.30
2024-02-12T09:30:02.883Z,0.20
2024-02-12T09:32:29.762Z,0.20
2024-02-12T09:35:02.093Z,0.20
2024-02-12T09:37:34.124Z,0.30
2024-02-12T09:40:05.171Z,0.20
2024-02-12T09:42:35.301Z,0.23
2024-02-12T09:45:10.282Z,0.20
2024-02-12T09:47:39.904Z,0.30
2024-02-12T09:50:13.166Z,0.20
2024-02-12T09:52:41.521Z,0.20
2024-02-12T09:55:25.036Z,0.20
2024-02-12T09:57:52.933Z,0.30
2024-02-12T10:00:32.698Z,0.33
2024-02-12T10:03:02.523Z,0.30
2024-02-12T10:05:32.408Z,0.30
2024-02-12T10:08:03.189Z,0.40
2024-02-12T10:10:32.946Z,0.20
2024-02-12T10:12:59.565Z,0.13
2024-02-12T10:15:26.122Z,0.30
2024-02-12T10:17:57.484Z,0.30
2024-02-12T10:20:24.848Z,0.20
2024-02-12T10:22:51.520Z,0.20
2024-02-12T10:25:20.737Z,0.40
2024-02-12T10:27:47.790Z,0.30
2024-02-12T10:30:20.554Z,0.27
2024-02-12T10:33:12.676Z,0.30
2024-02-12T10:35:48.805Z,0.23
2024-02-12T10:38:20.858Z,0.30
2024-02-12T10:41:04.754Z,0.20
2024-02-12T10:43:32.991Z,0.30
2024-02-12T10:46:04.586Z,0.30
2024-02-12T10:48:35.275Z,0.30
2024-02-12T10:51:04.173Z,0.20
2024-02-12T10:53:33.257Z,0.20
2024-02-12T10:56:02.596Z,0.20
2024-02-12T10:58:29.422Z,0.40
2024-02-12T11:01:03.954Z,0.20
2024-02-12T11:03:33.746Z,0.30
2024-02-12T11:06:06.640Z,0.30
2024-02-12T11:08:35.930Z,0.30
2024-02-12T11:11:04.692Z,0.40
2024-02-12T11:13:39.900Z,0.30
2024-02-12T11:16:13.564Z,0.30
2024-02-12T11:18:43.093Z,0.23
2024-02-12T11:21:11.002Z,0.20
2024-02-12T11:23:41.848Z,0.40
2024-02-12T11:26:10.921Z,0.30
2024-02-12T11:28:44.489Z,0.30
2024-02-12T11:31:14.242Z,0.70
2024-02-12T11:33:44.159Z,0.87
2024-02-12T11:36:12.089Z,0.30
2024-02-12T11:38:49.624Z,0.40
2024-02-12T11:41:16.775Z,0.30
2024-02-12T11:43:44.039Z,0.30
2024-02-12T11:46:24.723Z,0.20
2024-02-12T11:49:01.959Z,0.23
2024-02-12T11:51:32.084Z,0.30
2024-02-12T11:54:01.272Z,0.40
2024-02-12T11:56:33.966Z,0.40
2024-02-12T11:59:03.543Z,0.30
2024-02-12T12:01:36.731Z,0.40
2024-02-12T12:04:03.280Z,0.30
2024-02-12T12:06:35.892Z,0.20
2024-02-12T12:09:10.130Z,0.40
2024-02-12T12:11:40.929Z,0.30
2024-02-12T12:14:10.415Z,0.30
2024-02-12T12:16:37.033Z,0.20
2024-02-12T12:19:07.423Z,0.30
2024-02-12T12:21:35.311Z,0.40
2024-02-12T12:24:05.131Z,0.40
2024-02-12T12:26:36.727Z,0.40
2024-02-12T12:29:04.644Z,0.30
2024-02-12T12:31:33.517Z,0.40
2024-02-12T12:34:01.272Z,0.47
2024-02-12T12:36:36.715Z,0.43
2024-02-12T12:39:06.426Z,0.43
2024-02-12T12:41:34.267Z,0.37
2024-02-12T12:44:11.756Z,0.40
2024-02-12T12:46:47.854Z,0.30
2024-02-12T12:49:17.557Z,0.40
2024-02-12T12:51:45.659Z,0.30
2024-02-12T12:54:12.807Z,0.30
2024-02-12T12:56:39.518Z,0.30
2024-02-12T12:59:08.302Z,0.40
2024-02-12T13:01:35.314Z,0.30
2024-02-12T13:04:05.468Z,0.40
2024-02-12T13:06:33.775Z,0.40
2024-02-12T13:09:06.323Z,0.40
2024-02-12T13:11:34.278Z,0.40
2024-02-12T13:14:12.799Z,0.30
2024-02-12T13:16:59.956Z,0.40
2024-02-12T13:19:30.450Z,0.40
2024-02-12T13:25:25.056Z,0.30
2024-02-12T13:27:54.569Z,0.30
2024-02-12T13:30:24.674Z,0.40
2024-02-12T13:33:02.646Z,0.50
2024-02-12T13:35:41.519Z,0.50
2024-02-12T13:38:21.994Z,0.50
2024-02-12T13:40:52.772Z,0.50
2024-02-12T13:43:26.990Z,0.50
2024-02-12T13:45:55.976Z,0.40
2024-02-12T13:48:32.433Z,0.60
2024-02-12T13:51:00.669Z,0.90
2024-02-12T13:53:30.735Z,0.93
2024-02-12T13:56:07.855Z,0.50
2024-02-12T13:58:37.502Z,0.43
2024-02-12T14:01:16.572Z,0.40
2024-02-12T14:03:54.766Z,0.40
2024-02-12T14:06:25.517Z,0.50
2024-02-12T14:09:06.982Z,0.57
2024-02-12T14:11:39.008Z,0.50
2024-02-12T14:14:05.762Z,0.40
2024-02-12T14:16:34.828Z,0.40
2024-02-12T14:19:01.607Z,0.40
2024-02-12T14:21:32.183Z,0.43
2024-02-12T14:27:42.630Z,0.40
2024-02-12T14:30:19.252Z,0.20
2024-02-12T14:32:46.602Z,0.43
2024-02-12T14:35:18.854Z,0.40
2024-02-12T14:37:48.757Z,0.60
2024-02-12T14:40:32.250Z,0.40
2024-02-12T14:43:00.825Z,0.77
2024-02-12T14:45:34.603Z,0.50
2024-02-12T14:48:10.754Z,0.60
2024-02-12T14:50:49.249Z,0.60
2024-02-12T14:53:22.703Z,0.50
2024-02-12T14:55:59.714Z,0.60
2024-02-12T14:58:31.368Z,0.40
2024-02-12T15:01:26.630Z,0.50
2024-02-12T15:03:55.190Z,0.50
2024-02-12T15:06:24.890Z,0.60
2024-02-12T15:09:00.367Z,0.60
2024-02-12T15:11:29.685Z,0.40
2024-02-12T15:13:56.842Z,0.50
2024-02-12T15:16:38.785Z,0.40
2024-02-12T15:19:08.370Z,0.57
2024-02-12T15:21:38.508Z,0.60
2024-02-12T15:24:06.203Z,0.40
2024-02-12T15:26:33.746Z,0.40
2024-02-12T15:29:03.724Z,0.47
2024-02-12T15:31:40.093Z,0.50
2024-02-12T15:34:12.749Z,0.50
2024-02-12T15:36:45.417Z,0.60
2024-02-12T15:39:13.188Z,0.50
2024-02-12T15:41:42.793Z,0.50
2024-02-12T15:44:13.530Z,0.57
2024-02-12T15:46:44.672Z,0.80
2024-02-12T15:49:12.555Z,0.50
2024-02-12T15:51:40.278Z,0.70
2024-02-12T15:54:08.007Z,0.70
2024-02-12T15:56:38.914Z,0.50
2024-02-12T15:59:06.704Z,0.70
2024-02-12T16:01:43.304Z,0.50
2024-02-12T16:04:17.038Z,0.50
2024-02-12T16:14:11.672Z,1.07
2024-02-12T16:16:50.835Z,0.80
2024-02-12T16:19:18.968Z,0.63
2024-02-12T16:21:48.748Z,0.67
2024-02-12T16:24:22.996Z,0.87
2024-02-12T16:26:52.719Z,0.60
2024-02-12T16:29:23.378Z,0.83
2024-02-12T16:31:57.942Z,0.67
2024-02-12T16:34:28.525Z,1.10
2024-02-12T16:36:56.143Z,0.90
2024-02-12T16:39:22.703Z,0.70
2024-02-12T16:41:49.682Z,0.80
2024-02-12T16:44:24.901Z,0.93
2024-02-12T16:46:59.231Z,0.90
2024-02-12T16:49:28.838Z,1.03
2024-02-12T16:51:58.775Z,0.80
2024-02-12T16:54:28.288Z,0.83
2024-02-12T16:56:58.399Z,1.00
2024-02-12T16:59:25.539Z,0.80
2024-02-12T17:01:56.429Z,1.00
2024-02-12T17:04:28.382Z,1.30
2024-02-12T17:06:55.629Z,0.93
2024-02-12T17:09:24.243Z,1.17
2024-02-12T17:11:54.230Z,1.10
2024-02-12T17:14:23.138Z,1.10
2024-02-12T17:16:51.390Z,1.10
2024-02-12T17:19:18.946Z,1.80
2024-02-12T17:21:47.177Z,1.90
2024-02-12T17:24:22.281Z,1.47
2024-02-12T17:26:52.706Z,1.30
2024-02-12T17:29:23.964Z,1.17
2024-02-12T17:31:51.204Z,1.00
2024-02-12T17:34:20.859Z,1.00
2024-02-12T17:36:47.963Z,0.90
2024-02-12T17:39:15.079Z,0.90
2024-02-12T17:41:51.750Z,2.23
2024-02-12T17:44:20.036Z,1.73
2024-02-12T17:46:48.734Z,1.00
2024-02-12T17:49:20.051Z,0.93
2024-02-12T17:51:50.258Z,1.00
2024-02-12T17:54:18.935Z,1.10
2024-02-12T17:57:03.419Z,0.90
2024-02-12T17:59:31.474Z,0.90
2024-02-12T18:02:03.393Z,0.93
2024-02-12T18:04:31.168Z,0.90
2024-02-12T18:06:59.805Z,0.87
2024-02-12T18:09:27.215Z,0.97
2024-02-12T18:11:58.400Z,0.90
2024-02-12T18:14:25.214Z,0.90
2024-02-12T18:16:55.845Z,1.10
2024-02-12T18:19:26.665Z,1.00
2024-02-12T18:21:57.028Z,0.80
2024-02-12T18:24:24.233Z,1.00
2024-02-12T18:26:53.508Z,1.10
2024-02-12T18:29:23.189Z,1.20
2024-02-12T18:31:59.934Z,1.07
2024-02-12T18:34:29.635Z,1.20
2024-02-12T18:36:59.193Z,1.20
2024-02-12T18:39:31.333Z,1.00
2024-02-12T18:42:05.457Z,1.20
2024-02-12T18:44:39.843Z,1.10
2024-02-12T18:47:06.730Z,1.17
2024-02-12T18:49:35.201Z,1.20
2024-02-12T18:52:04.180Z,1.10
2024-02-12T18:54:35.620Z,1.40
2024-02-12T18:57:07.997Z,1.30
2024-02-12T18:59:35.111Z,1.27
2024-02-12T19:02:05.079Z,1.47
2024-02-12T19:04:32.452Z,1.43
2024-02-12T19:06:59.371Z,1.47
2024-02-12T19:09:27.240Z,1.30
2024-02-12T19:11:58.057Z,1.37
2024-02-12T19:14:28.055Z,1.40
2024-02-12T19:16:56.688Z,1.60
2024-02-12T19:19:28.305Z,1.77
2024-02-12T19:21:59.487Z,1.53
2024-02-12T19:24:33.301Z,1.23
2024-02-12T19:27:07.269Z,1.50
2024-02-12T19:29:36.192Z,1.53
2024-02-12T19:32:09.409Z,1.70
2024-02-12T19:34:40.280Z,1.53
2024-02-12T19:37:21.118Z,1.57
2024-02-12T19:39:50.169Z,1.53
2024-02-12T19:42:23.173Z,1.50
2024-02-12T19:44:51.064Z,1.50
2024-02-12T19:47:19.120Z,1.40
2024-02-12T19:49:49.620Z,1.40
2024-02-12T19:52:28.290Z,1.30
2024-02-12T19:54:57.371Z,1.30
2024-02-12T19:57:27.650Z,1.30
2024-02-12T19:59:56.601Z,1.60
2024-02-12T20:02:27.172Z,1.40
2024-02-12T20:05:00.208Z,1.40
2024-02-12T20:07:30.133Z,1.30
2024-02-12T20:09:56.732Z,1.37
2024-02-12T20:12:28.438Z,1.40
2024-02-12T20:14:57.927Z,1.20
2024-02-12T20:17:28.270Z,1.20
2024-02-12T20:20:00.412Z,1.33
2024-02-12T20:22:28.773Z,1.60
2024-02-12T20:25:00.930Z,1.47
2024-02-12T20:27:27.665Z,1.57
2024-02-12T20:30:03.786Z,1.60
2024-02-12T20:32:30.600Z,1.83
2024-02-12T20:35:02.691Z,1.70
2024-02-12T20:37:34.780Z,1.60
2024-02-12T20:40:04.305Z,1.60
2024-02-12T20:42:31.425Z,1.50
2024-02-12T20:44:58.326Z,2.03
2024-02-12T20:47:26.363Z,1.80
2024-02-12T20:49:55.439Z,1.93
2024-02-12T20:52:26.604Z,1.80
2024-02-12T20:54:58.208Z,1.70
2024-02-12T20:57:24.820Z,2.00
2024-02-12T20:59:51.669Z,2.27
2024-02-12T21:02:19.021Z,1.80
2024-02-12T21:04:45.643Z,1.90
2024-02-12T21:07:12.585Z,1.77
2024-02-12T21:09:46.285Z,2.00
2024-02-12T21:12:18.105Z,1.80
2024-02-12T21:14:45.638Z,1.63
2024-02-12T21:17:12.444Z,1.87
2024-02-12T21:19:39.393Z,2.10
2024-02-12T21:22:12.984Z,2.00
2024-02-12T21:24:40.714Z,1.80
2024-02-12T21:27:10.667Z,2.10
2024-02-12T21:29:41.903Z,1.80
2024-02-12T21:32:12.633Z,2.20
2024-02-12T21:34:39.551Z,2.00
2024-02-12T21:37:10.395Z,2.10
2024-02-12T21:39:42.608Z,1.97
2024-02-12T21:42:25.254Z,2.20
2024-02-12T21:44:56.767Z,2.23
2024-02-12T21:47:30.674Z,2.00
2024-02-12T21:49:57.756Z,2.00
2024-02-12T21:52:27.293Z,2.07
2024-02-12T21:54:53.995Z,2.20
2024-02-12T21:57:24.558Z,2.20
2024-02-12T21:59:55.372Z,2.00
2024-02-12T22:02:24.761Z,2.23
2024-02-12T22:04:55.786Z,2.30
2024-02-12T22:07:23.587Z,2.30
2024-02-12T22:09:50.333Z,2.40
2024-02-12T22:12:17.364Z,2.50
2024-02-12T22:14:51.133Z,2.60
2024-02-12T22:17:20.473Z,2.60
2024-02-12T22:19:50.986Z,2.37
2024-02-12T22:22:22.992Z,2.20
2024-02-12T22:25:00.391Z,2.30
2024-02-12T22:27:27.073Z,2.60
2024-02-12T22:29:53.891Z,2.50
2024-02-12T22:32:28.753Z,2.40
2024-02-12T22:34:58.342Z,2.47
2024-02-12T22:37:27.353Z,2.13
2024-02-12T22:39:55.144Z,2.20
2024-02-12T22:42:22.699Z,2.30
2024-02-12T22:44:49.362Z,2.67
2024-02-12T22:47:18.590Z,2.23
2024-02-12T22:49:50.305Z,2.40
2024-02-12T22:52:18.151Z,1.87
2024-02-12T22:54:45.566Z,2.03
2024-02-12T22:57:12.209Z,2.20
2024-02-12T22:59:39.140Z,2.23
2024-02-12T23:02:10.293Z,2.27
2024-02-12T23:04:37.513Z,2.10
2024-02-12T23:07:18.407Z,2.10
2024-02-12T23:09:49.052Z,2.33
2024-02-12T23:12:19.271Z,2.13
2024-02-12T23:14:50.813Z,2.20
2024-02-12T23:17:19.127Z,2.30
2024-02-12T23:19:45.738Z,1.97
2024-02-12T23:22:17.492Z,2.10
2024-02-12T23:24:45.363Z,2.27
2024-02-12T23:27:16.176Z,2.20
2024-02-12T23:29:44.356Z,7.57
2024-02-12T23:32:13.487Z,4.63
2024-02-12T23:34:40.914Z,2.20
2024-02-12T23:37:09.908Z,1.90
2024-02-12T23:39:36.922Z,2.20
2024-02-12T23:42:06.124Z,2.17
2024-02-12T23:44:33.299Z,1.97
2024-02-12T23:47:05.519Z,2.10
2024-02-12T23:49:32.559Z,2.53
2024-02-12T23:52:11.173Z,2.17
2024-02-12T23:54:38.279Z,2.43
2024-02-12T23:57:04.926Z,2.20
2024-02-12T23:59:33.475Z,2.17
